Time,TemperatureF,DewpointF,PressureIn,WindDirection,WindDirectionDegrees,WindSpeedMPH,WindSpeedGustMPH,Humidity,HourlyPrecipIn,Conditions,Clouds,dailyrainin,SoftwareType,DateUTC
2013-04-17 00:02:00,46.0,35.0,30.06,NNE,22,1.0,1.0,65,0.00,,,0.00,,2013-04-17 05:02:00,
2013-04-17 00:12:00,46.0,35.0,30.06,NNE,22,1.0,1.0,65,0.00,,,0.00,,2013-04-17 05:12:00,
2013-04-17 00:22:00,46.0,35.0,30.07,NNW,334,0.0,0.0,65,0.00,,,0.00,,2013-04-17 05:22:00,
2013-04-17 00:32:00,46.0,35.0,30.07,NE,49,0.0,0.0,66,0.00,,,0.00,,2013-04-17 05:32:00,
2013-04-17 00:42:00,46.0,35.0,30.07,NE,49,0.0,0.0,66,0.00,,,0.00,,2013-04-17 05:42:00,
2013-04-17 00:52:00,46.0,35.0,30.07,East,100,0.0,0.0,66,0.00,,,0.00,,2013-04-17 05:52:00,
2013-04-17 01:02:00,46.0,36.0,30.07,ENE,65,0.0,0.0,67,0.00,,,0.00,,2013-04-17 06:02:00,
2013-04-17 01:12:00,46.0,36.0,30.07,ENE,65,0.0,0.0,67,0.00,,,0.00,,2013-04-17 06:12:00,
2013-04-17 01:22:00,46.0,36.0,30.07,ENE,73,0.0,0.0,69,0.00,,,0.00,,2013-04-17 06:22:00,
2013-04-17 01:32:00,46.0,36.0,30.07,NE,40,0.0,0.0,69,0.00,,,0.00,,2013-04-17 06:32:00,
2013-04-17 01:42:00,46.0,36.0,30.07,NE,40,0.0,0.0,69,0.00,,,0.00,,2013-04-17 06:42:00,
2013-04-17 01:52:00,46.0,37.0,30.06,East,81,3.0,3.0,70,0.00,,,0.00,,2013-04-17 06:52:00,
2013-04-17 02:02:00,46.0,37.0,30.05,ENE,73,0.0,0.0,71,0.00,,,0.00,,2013-04-17 07:02:00,
2013-04-17 02:12:00,46.0,37.0,30.05,ENE,73,0.0,0.0,71,0.00,,,0.00,,2013-04-17 07:12:00,
2013-04-17 02:22:00,45.0,36.0,30.05,ENE,73,0.0,0.0,71,0.00,,,0.00,,2013-04-17 07:22:00,
2013-04-17 02:32:00,45.0,37.0,30.02,NNE,30,0.0,0.0,72,0.00,,,0.00,,2013-04-17 07:32:00,
2013-04-17 02:42:00,45.0,37.0,30.02,NNE,30,0.0,0.0,72,0.00,,,0.00,,2013-04-17 07:42:00,
2013-04-17 02:52:00,45.0,37.0,30.01,East,98,0.0,0.0,72,0.00,,,0.00,,2013-04-17 07:52:00,
2013-04-17 03:02:00,45.0,37.0,29.98,East,84,1.0,1.0,73,0.00,,,0.00,,2013-04-17 08:02:00,
2013-04-17 03:12:00,45.0,37.0,29.98,East,84,1.0,1.0,73,0.00,,,0.00,,2013-04-17 08:12:00,
2013-04-17 03:22:00,45.0,37.0,29.97,ESE,102,2.0,2.0,74,0.00,,,0.00,,2013-04-17 08:22:00,
2013-04-17 03:32:00,45.0,37.0,29.97,NE,53,0.0,0.0,74,0.00,,,0.00,,2013-04-17 08:32:00,
2013-04-17 03:42:00,45.0,37.0,29.97,NE,53,0.0,0.0,74,0.00,,,0.00,,2013-04-17 08:42:00,
2013-04-17 03:52:00,45.0,37.0,29.97,NE,42,0.0,0.0,74,0.00,,,0.00,,2013-04-17 08:52:00,
2013-04-17 04:02:00,45.0,37.0,29.96,ENE,57,0.0,0.0,74,0.00,,,0.00,,2013-04-17 09:02:00,
2013-04-17 04:12:00,45.0,37.0,29.96,ENE,57,0.0,0.0,74,0.00,,,0.00,,2013-04-17 09:12:00,
2013-04-17 04:22:00,45.0,37.0,29.96,NNE,15,2.0,2.0,74,0.00,,,0.00,,2013-04-17 09:22:00,
2013-04-17 04:33:00,45.0,37.0,29.97,North,355,0.0,0.0,74,0.00,,,0.00,,2013-04-17 09:33:00,
2013-04-17 04:42:00,45.0,37.0,29.97,North,355,0.0,0.0,74,0.00,,,0.00,,2013-04-17 09:42:00,
2013-04-17 04:52:00,45.0,38.0,29.94,North,355,0.0,0.0,75,0.00,,,0.00,,2013-04-17 09:52:00,
2013-04-17 05:02:00,45.0,38.0,29.94,North,355,0.0,0.0,75,0.00,,,0.00,,2013-04-17 10:02:00,
2013-04-17 05:12:00,45.0,38.0,29.94,North,355,0.0,0.0,75,0.00,,,0.00,,2013-04-17 10:12:00,
2013-04-17 05:23:00,45.0,38.0,29.94,East,90,0.0,0.0,75,0.00,,,0.00,,2013-04-17 10:23:00,
2013-04-17 05:32:00,45.0,38.0,29.92,ENE,71,0.0,0.0,76,0.00,,,0.00,,2013-04-17 10:32:00,
2013-04-17 05:42:00,45.0,38.0,29.92,ENE,71,0.0,0.0,76,0.00,,,0.00,,2013-04-17 10:42:00,
2013-04-17 05:52:00,45.0,38.0,29.92,ENE,76,4.0,4.0,76,0.00,,,0.00,,2013-04-17 10:52:00,
2013-04-17 06:02:00,45.0,38.0,29.90,NE,51,3.0,3.0,76,0.00,,,0.00,,2013-04-17 11:02:00,
2013-04-17 06:12:00,45.0,38.0,29.90,NE,51,3.0,3.0,76,0.00,,,0.00,,2013-04-17 11:12:00,
2013-04-17 06:22:00,45.0,38.0,29.89,ESE,108,0.0,0.0,77,0.00,,,0.00,,2013-04-17 11:22:00,
2013-04-17 06:32:00,46.0,40.0,29.88,East,80,0.0,0.0,78,0.00,,,0.00,,2013-04-17 11:32:00,
2013-04-17 06:42:00,46.0,40.0,29.88,East,80,0.0,0.0,78,0.00,,,0.00,,2013-04-17 11:42:00,
2013-04-17 06:52:00,45.0,39.0,29.88,East,98,0.0,0.0,79,0.00,,,0.00,,2013-04-17 11:52:00,
2013-04-17 07:02:00,46.0,40.0,29.85,ESE,104,0.0,0.0,80,0.00,,,0.00,,2013-04-17 12:02:00,
2013-04-17 07:12:00,46.0,40.0,29.85,ESE,104,0.0,0.0,80,0.00,,,0.00,,2013-04-17 12:12:00,
2013-04-17 07:22:00,46.0,41.0,29.87,East,98,0.0,0.0,81,0.00,,,0.00,,2013-04-17 12:22:00,
2013-04-17 07:32:00,46.0,41.0,29.85,ENE,77,0.0,0.0,82,0.00,,,0.00,,2013-04-17 12:32:00,
2013-04-17 07:42:00,46.0,41.0,29.85,ENE,77,0.0,0.0,82,0.00,,,0.00,,2013-04-17 12:42:00,
2013-04-17 07:52:00,47.0,42.0,29.91,NW,316,0.0,0.0,82,0.00,,,0.00,,2013-04-17 12:52:00,
2013-04-17 08:02:00,46.0,41.0,29.92,NW,317,0.0,0.0,82,0.00,,,0.00,,2013-04-17 13:02:00,
2013-04-17 08:12:00,46.0,41.0,29.92,NW,317,0.0,0.0,82,0.00,,,0.00,,2013-04-17 13:12:00,
2013-04-17 08:22:00,46.0,41.0,29.87,ENE,67,1.0,1.0,84,0.03,,,0.03,,2013-04-17 13:22:00,
2013-04-17 08:32:00,45.0,41.0,29.89,NW,304,0.0,0.0,86,0.03,,,0.03,,2013-04-17 13:32:00,
2013-04-17 08:42:00,45.0,41.0,29.89,NW,304,0.0,0.0,86,0.03,,,0.03,,2013-04-17 13:42:00,
2013-04-17 08:52:00,45.0,42.0,29.89,NW,304,0.0,0.0,88,0.03,,,0.03,,2013-04-17 13:52:00,
2013-04-17 09:02:00,45.0,42.0,29.86,NW,304,0.0,0.0,88,0.03,,,0.03,,2013-04-17 14:02:00,
2013-04-17 09:12:00,45.0,42.0,29.86,NW,304,0.0,0.0,88,0.03,,,0.03,,2013-04-17 14:12:00,
2013-04-17 09:22:00,45.0,42.0,29.90,NW,304,0.0,0.0,89,0.03,,,0.03,,2013-04-17 14:22:00,
2013-04-17 09:32:00,45.0,42.0,29.90,NE,34,1.0,1.0,90,0.01,,,0.04,,2013-04-17 14:32:00,
2013-04-17 09:42:00,45.0,43.0,29.88,NNW,336,3.0,3.0,91,0.01,,,0.04,,2013-04-17 14:42:00,
2013-04-17 09:52:00,45.0,43.0,29.88,NNW,336,3.0,3.0,91,0.01,,,0.04,,2013-04-17 14:52:00,
2013-04-17 10:02:00,45.0,43.0,29.88,NNW,336,3.0,3.0,91,0.01,,,0.04,,2013-04-17 15:02:00,
2013-04-17 10:12:00,45.0,43.0,29.91,NNW,346,0.0,0.0,92,0.06,,,0.05,,2013-04-17 15:12:00,
2013-04-17 10:22:00,45.0,43.0,29.91,NNW,346,0.0,0.0,92,0.06,,,0.05,,2013-04-17 15:22:00,
2013-04-17 10:33:00,45.0,43.0,29.91,NNW,346,0.0,0.0,92,0.06,,,0.05,,2013-04-17 15:33:00,
2013-04-17 10:42:00,45.0,43.0,29.91,NNW,346,0.0,0.0,92,0.06,,,0.05,,2013-04-17 15:42:00,
2013-04-17 10:53:00,45.0,43.0,29.87,NNE,33,0.0,0.0,93,0.06,,,0.10,,2013-04-17 15:53:00,
2013-04-17 11:03:00,45.0,43.0,29.87,NNE,33,0.0,0.0,93,0.06,,,0.10,,2013-04-17 16:03:00,
2013-04-17 11:12:00,45.0,43.0,29.87,NNE,33,0.0,0.0,93,0.06,,,0.10,,2013-04-17 16:12:00,
2013-04-17 11:22:00,45.0,43.0,29.85,NE,37,0.0,0.0,93,0.05,,,0.10,,2013-04-17 16:22:00,
2013-04-17 11:32:00,45.0,43.0,29.84,NNW,332,0.0,0.0,93,0.01,,,0.10,,2013-04-17 16:32:00,
2013-04-17 11:42:00,45.0,43.0,29.84,NNW,332,0.0,0.0,93,0.01,,,0.10,,2013-04-17 16:42:00,
2013-04-17 11:52:00,45.0,43.0,29.84,NNW,332,0.0,0.0,93,0.01,,,0.10,,2013-04-17 16:52:00,
2013-04-17 12:02:00,45.0,43.0,29.84,NNW,332,0.0,0.0,93,0.01,,,0.10,,2013-04-17 17:02:00,
2013-04-17 12:22:00,46.0,44.0,29.86,North,5,0.0,0.0,94,0.02,,,0.11,,2013-04-17 17:22:00,
2013-04-17 12:33:00,46.0,44.0,29.84,ESE,109,0.0,0.0,94,0.02,,,0.12,,2013-04-17 17:33:00,
2013-04-17 12:42:00,46.0,44.0,29.84,ESE,109,0.0,0.0,94,0.02,,,0.12,,2013-04-17 17:42:00,
2013-04-17 12:52:00,46.0,44.0,29.83,East,90,0.0,0.0,94,0.02,,,0.12,,2013-04-17 17:52:00,
2013-04-17 13:02:00,46.0,44.0,29.81,NE,47,0.0,0.0,94,0.02,,,0.12,,2013-04-17 18:02:00,
2013-04-17 13:12:00,46.0,44.0,29.81,NE,47,0.0,0.0,94,0.02,,,0.12,,2013-04-17 18:12:00,
2013-04-17 13:22:00,46.0,44.0,29.80,ENE,73,0.0,0.0,94,0.01,,,0.12,,2013-04-17 18:22:00,
2013-04-17 13:32:00,47.0,46.0,29.80,East,94,0.0,0.0,95,0.00,,,0.12,,2013-04-17 18:32:00,
2013-04-17 13:42:00,47.0,46.0,29.80,East,94,0.0,0.0,95,0.00,,,0.12,,2013-04-17 18:42:00,
2013-04-17 13:52:00,47.0,46.0,29.79,East,96,0.0,0.0,95,0.00,,,0.12,,2013-04-17 18:52:00,
2013-04-17 14:02:00,47.0,46.0,29.79,East,96,0.0,0.0,95,0.00,,,0.12,,2013-04-17 19:02:00,
2013-04-17 14:12:00,47.0,46.0,29.79,East,96,0.0,0.0,95,0.00,,,0.12,,2013-04-17 19:12:00,
2013-04-17 14:22:00,47.0,46.0,29.80,NNW,341,0.0,0.0,95,0.01,,,0.13,,2013-04-17 19:22:00,
2013-04-17 14:32:00,47.0,46.0,29.80,NNW,341,3.0,3.0,95,0.01,,,0.13,,2013-04-17 19:32:00,
2013-04-17 14:42:00,47.0,46.0,29.78,North,355,0.0,0.0,95,0.01,,,0.13,,2013-04-17 19:42:00,
2013-04-17 14:52:00,47.0,46.0,29.78,North,355,0.0,0.0,95,0.01,,,0.13,,2013-04-17 19:52:00,
2013-04-17 15:02:00,47.0,46.0,29.77,North,355,0.0,0.0,95,0.02,,,0.14,,2013-04-17 20:02:00,
2013-04-17 15:12:00,47.0,46.0,29.77,North,355,0.0,0.0,95,0.02,,,0.14,,2013-04-17 20:12:00,
2013-04-17 15:22:00,48.0,47.0,29.76,NNE,26,3.0,3.0,95,0.02,,,0.14,,2013-04-17 20:22:00,
2013-04-17 15:32:00,48.0,47.0,29.74,East,99,0.0,0.0,95,0.01,,,0.14,,2013-04-17 20:32:00,
2013-04-17 15:42:00,48.0,47.0,29.74,East,99,0.0,0.0,95,0.01,,,0.14,,2013-04-17 20:42:00,
2013-04-17 15:52:00,48.0,47.0,29.72,NNE,18,0.0,0.0,95,0.01,,,0.14,,2013-04-17 20:52:00,
2013-04-17 16:02:00,47.0,46.0,29.72,NNE,27,0.0,0.0,95,0.01,,,0.14,,2013-04-17 21:02:00,
2013-04-17 16:12:00,47.0,46.0,29.72,NNE,27,0.0,0.0,95,0.01,,,0.14,,2013-04-17 21:12:00,
2013-04-17 16:22:00,47.0,46.0,29.70,East,96,0.0,0.0,95,0.00,,,0.14,,2013-04-17 21:22:00,
2013-04-17 16:33:00,47.0,46.0,29.70,ENE,78,0.0,0.0,95,0.00,,,0.14,,2013-04-17 21:33:00,
2013-04-17 16:42:00,47.0,46.0,29.70,ENE,78,0.0,0.0,95,0.00,,,0.14,,2013-04-17 21:42:00,
2013-04-17 16:53:00,47.0,46.0,29.70,ENE,75,0.0,0.0,95,0.01,,,0.15,,2013-04-17 21:53:00,
2013-04-17 17:02:00,47.0,46.0,29.70,NE,41,0.0,0.0,95,0.02,,,0.16,,2013-04-17 22:02:00,
2013-04-17 17:12:00,47.0,46.0,29.70,NE,41,0.0,0.0,95,0.02,,,0.16,,2013-04-17 22:12:00,
2013-04-17 17:22:00,47.0,46.0,29.70,NE,38,0.0,0.0,95,0.02,,,0.16,,2013-04-17 22:22:00,
2013-04-17 17:33:00,47.0,46.0,29.70,NE,38,0.0,0.0,95,0.02,,,0.16,,2013-04-17 22:33:00,
2013-04-17 17:42:00,47.0,46.0,29.70,NE,38,0.0,0.0,95,0.05,,,0.19,,2013-04-17 22:42:00,
2013-04-17 17:53:00,47.0,46.0,29.70,NE,38,0.0,0.0,95,0.05,,,0.19,,2013-04-17 22:53:00,
2013-04-17 18:02:00,47.0,46.0,29.79,North,349,5.0,5.0,95,0.08,,,0.23,,2013-04-17 23:02:00,
2013-04-17 18:12:00,47.0,46.0,29.71,NNW,335,4.0,4.0,95,0.08,,,0.23,,2013-04-17 23:12:00,
2013-04-17 18:22:00,47.0,46.0,29.71,NNW,335,4.0,4.0,95,0.08,,,0.23,,2013-04-17 23:22:00,
2013-04-17 18:32:00,47.0,46.0,29.70,North,5,1.0,1.0,95,0.08,,,0.24,,2013-04-17 23:32:00,
2013-04-17 18:42:00,47.0,46.0,29.67,NNE,12,3.0,3.0,95,0.11,,,0.27,,2013-04-17 23:42:00,
2013-04-17 18:52:00,47.0,46.0,29.67,NNE,12,3.0,3.0,95,0.11,,,0.27,,2013-04-17 23:52:00,
2013-04-17 19:02:00,47.0,46.0,29.67,NNW,339,0.0,0.0,95,0.08,,,0.27,,2013-04-18 00:02:00,
2013-04-17 19:12:00,47.0,46.0,29.67,ESE,104,0.0,0.0,95,0.07,,,0.27,,2013-04-18 00:12:00,
2013-04-17 19:22:00,47.0,46.0,29.67,ESE,104,0.0,0.0,95,0.07,,,0.27,,2013-04-18 00:22:00,
2013-04-17 19:32:00,47.0,46.0,29.66,NNW,331,2.0,2.0,95,0.08,,,0.32,,2013-04-18 00:32:00,
2013-04-17 19:42:00,47.0,46.0,29.65,ENE,72,0.0,0.0,95,0.09,,,0.33,,2013-04-18 00:42:00,
2013-04-17 19:52:00,47.0,46.0,29.65,ENE,72,0.0,0.0,95,0.09,,,0.33,,2013-04-18 00:52:00,
2013-04-17 20:02:00,47.0,46.0,29.62,WSW,254,2.0,2.0,95,0.06,,,0.33,,2013-04-18 01:02:00,
2013-04-17 20:12:00,47.0,46.0,29.67,NNE,30,0.0,0.0,95,0.10,,,0.33,,2013-04-18 01:12:00,
2013-04-17 20:22:00,47.0,46.0,29.67,NNE,30,0.0,0.0,95,0.10,,,0.33,,2013-04-18 01:22:00,
2013-04-17 20:32:00,47.0,46.0,29.63,NE,54,1.0,1.0,95,0.09,,,0.39,,2013-04-18 01:32:00,
2013-04-17 20:42:00,47.0,46.0,29.65,NE,36,0.0,0.0,95,-99.99,,,-99.99,,2013-04-18 01:42:00,
2013-04-17 20:52:00,47.0,46.0,29.65,NE,36,0.0,0.0,95,-99.99,,,-99.99,,2013-04-18 01:52:00,
2013-04-17 21:02:00,47.0,46.0,29.65,NW,309,2.0,2.0,95,-99.99,,,-99.99,,2013-04-18 02:02:00,
2013-04-17 21:12:00,47.0,46.0,29.71,WNW,300,2.0,2.0,95,-99.99,,,-99.99,,2013-04-18 02:12:00,
2013-04-17 21:22:00,47.0,46.0,29.71,WNW,300,2.0,2.0,95,-99.99,,,-99.99,,2013-04-18 02:22:00,
2013-04-17 21:32:00,47.0,46.0,29.69,WNW,301,0.0,0.0,95,-99.99,,,-99.99,,2013-04-18 02:32:00,
2013-04-17 21:42:00,47.0,46.0,29.69,WNW,301,0.0,0.0,95,-99.99,,,-99.99,,2013-04-18 02:42:00,
2013-04-17 21:52:00,47.0,46.0,29.69,WNW,301,0.0,0.0,95,-99.99,,,-99.99,,2013-04-18 02:52:00,
2013-04-17 22:02:00,46.0,45.0,29.71,NNW,343,3.0,3.0,95,0.25,,,-99.99,,2013-04-18 03:02:00,
2013-04-17 22:12:00,45.0,44.0,29.70,NW,325,0.0,0.0,95,0.17,,,-99.99,,2013-04-18 03:12:00,
2013-04-17 22:22:00,45.0,44.0,29.70,NW,325,0.0,0.0,95,0.17,,,-99.99,,2013-04-18 03:22:00,
2013-04-17 22:33:00,45.0,44.0,29.71,NW,323,1.0,1.0,95,0.13,,,-99.99,,2013-04-18 03:33:00,
2013-04-17 22:43:00,44.0,43.0,29.70,NW,304,2.0,2.0,95,0.03,,,-99.99,,2013-04-18 03:43:00,
2013-04-17 22:53:00,44.0,43.0,29.70,NW,304,2.0,2.0,95,0.03,,,-99.99,,2013-04-18 03:53:00,
2013-04-17 23:03:00,44.0,43.0,29.69,NW,322,0.0,0.0,95,0.02,,,-99.99,,2013-04-18 04:03:00,
2013-04-17 23:13:00,44.0,43.0,29.69,NW,322,0.0,0.0,95,0.02,,,-99.99,,2013-04-18 04:13:00,
2013-04-17 23:23:00,44.0,43.0,29.68,NNW,342,0.0,0.0,95,0.02,,,-99.99,,2013-04-18 04:23:00,
2013-04-17 23:33:00,43.0,42.0,29.68,North,5,5.0,5.0,95,0.03,,,-99.99,,2013-04-18 04:33:00,
2013-04-17 23:43:00,43.0,42.0,29.68,North,9,9.0,9.0,95,0.03,,,-99.99,,2013-04-18 04:43:00,
2013-04-17 23:53:00,43.0,42.0,29.68,North,9,9.0,9.0,95,0.03,,,-99.99,,2013-04-18 04:53:00,